sensor_id;sensor_type;location;lat;lon;timestamp;P1;durP1;ratioP1;P2;durP2;ratioP2
29242;SDS011;21110;48.036;15.780;2023-03-01T00:01:05;3.83;;;2.30;;
29242;SDS011;21110;48.036;15.780;2023-03-01T00:05:58;3.55;;;2.38;;
29242;SDS011;21110;48.036;15.780;2023-03-01T00:08:24;6.72;;;2.45;;
29242;SDS011;21110;48.036;15.780;2023-03-01T00:11:07;4.55;;;2.47;;
29242;SDS011;21110;48.036;15.780;2023-03-01T00:13:51;15.68;;;2.50;;
29242;SDS011;21110;48.036;15.780;2023-03-01T00:16:20;7.32;;;2.60;;
29242;SDS011;21110;48.036;15.780;2023-03-01T00:18:50;3.75;;;2.30;;
29242;SDS011;21110;48.036;15.780;2023-03-01T00:21:16;4.03;;;2.47;;
29242;SDS011;21110;48.036;15.780;2023-03-01T00:23:44;3.92;;;2.47;;
29242;SDS011;21110;48.036;15.780;2023-03-01T00:26:11;4.40;;;2.42;;
29242;SDS011;21110;48.036;15.780;2023-03-01T00:28:38;4.45;;;2.55;;
29242;SDS011;21110;48.036;15.780;2023-03-01T00:33:31;4.20;;;2.53;;
29242;SDS011;21110;48.036;15.780;2023-03-01T00:35:58;5.80;;;2.80;;
29242;SDS011;21110;48.036;15.780;2023-03-01T00:38:24;7.15;;;2.40;;
29242;SDS011;21110;48.036;15.780;2023-03-01T00:40:49;5.90;;;2.38;;
29242;SDS011;21110;48.036;15.780;2023-03-01T00:43:15;3.80;;;2.60;;
29242;SDS011;21110;48.036;15.780;2023-03-01T00:45:40;4.30;;;2.60;;
29242;SDS011;21110;48.036;15.780;2023-03-01T00:48:06;3.75;;;2.15;;
29242;SDS011;21110;48.036;15.780;2023-03-01T00:50:32;4.15;;;2.38;;
29242;SDS011;21110;48.036;15.780;2023-03-01T00:52:57;4.90;;;2.50;;
29242;SDS011;21110;48.036;15.780;2023-03-01T00:55:23;8.77;;;2.50;;
29242;SDS011;21110;48.036;15.780;2023-03-01T00:57:49;2.55;;;2.30;;
29242;SDS011;21110;48.036;15.780;2023-03-01T01:00:15;6.05;;;2.50;;
29242;SDS011;21110;48.036;15.780;2023-03-01T01:02:41;5.22;;;2.40;;
29242;SDS011;21110;48.036;15.780;2023-03-01T01:05:07;3.67;;;2.40;;
29242;SDS011;21110;48.036;15.780;2023-03-01T01:07:33;3.42;;;2.40;;
29242;SDS011;21110;48.036;15.780;2023-03-01T01:09:59;3.58;;;2.42;;
29242;SDS011;21110;48.036;15.780;2023-03-01T01:12:24;5.60;;;2.45;;
29242;SDS011;21110;48.036;15.780;2023-03-01T01:14:50;4.60;;;2.22;;
29242;SDS011;21110;48.036;15.780;2023-03-01T01:17:15;6.03;;;2.38;;
29242;SDS011;21110;48.036;15.780;2023-03-01T01:19:41;2.83;;;2.50;;
29242;SDS011;21110;48.036;15.780;2023-03-01T01:22:07;2.97;;;2.40;;
29242;SDS011;21110;48.036;15.780;2023-03-01T01:24:32;4.47;;;2.55;;
29242;SDS011;21110;48.036;15.780;2023-03-01T01:26:58;3.20;;;2.22;;
29242;SDS011;21110;48.036;15.780;2023-03-01T01:29:23;2.67;;;2.33;;
29242;SDS011;21110;48.036;15.780;2023-03-01T01:31:49;2.13;;;2.03;;
29242;SDS011;21110;48.036;15.780;2023-03-01T01:34:16;2.17;;;2.00;;
29242;SDS011;21110;48.036;15.780;2023-03-01T01:36:43;3.67;;;2.38;;
29242;SDS011;21110;48.036;15.780;2023-03-01T01:39:12;3.17;;;2.30;;
29242;SDS011;21110;48.036;15.780;2023-03-01T01:41:38;2.28;;;2.08;;
29242;SDS011;21110;48.036;15.780;2023-03-01T01:46:42;2.85;;;2.40;;
29242;SDS011;21110;48.036;15.780;2023-03-01T01:49:36;3.13;;;2.20;;
29242;SDS011;21110;48.036;15.780;2023-03-01T01:52:14;2.30;;;2.10;;
29242;SDS011;21110;48.036;15.780;2023-03-01T01:54:51;2.60;;;2.35;;
29242;SDS011;21110;48.036;15.780;2023-03-01T01:57:46;2.50;;;2.30;;
29242;SDS011;21110;48.036;15.780;2023-03-01T02:00:25;3.33;;;2.30;;
29242;SDS011;21110;48.036;15.780;2023-03-01T02:03:12;2.47;;;2.28;;
29242;SDS011;21110;48.036;15.780;2023-03-01T02:05:47;3.13;;;2.17;;
29242;SDS011;21110;48.036;15.780;2023-03-01T02:08:39;3.33;;;2.33;;
29242;SDS011;21110;48.036;15.780;2023-03-01T02:11:06;3.45;;;2.28;;
29242;SDS011;21110;48.036;15.780;2023-03-01T02:13:33;2.67;;;2.45;;
29242;SDS011;21110;48.036;15.780;2023-03-01T02:16:04;3.72;;;2.10;;
29242;SDS011;21110;48.036;15.780;2023-03-01T02:18:40;3.63;;;2.40;;
29242;SDS011;21110;48.036;15.780;2023-03-01T02:23:51;2.58;;;2.38;;
29242;SDS011;21110;48.036;15.780;2023-03-01T02:26:19;2.10;;;2.00;;
29242;SDS011;21110;48.036;15.780;2023-03-01T02:28:50;2.40;;;2.20;;
29242;SDS011;21110;48.036;15.780;2023-03-01T02:31:17;2.42;;;2.15;;
29242;SDS011;21110;48.036;15.780;2023-03-01T02:34:03;7.15;;;2.42;;
29242;SDS011;21110;48.036;15.780;2023-03-01T02:36:35;8.27;;;2.22;;
29242;SDS011;21110;48.036;15.780;2023-03-01T02:39:03;7.97;;;2.40;;
29242;SDS011;21110;48.036;15.780;2023-03-01T02:41:32;10.90;;;2.40;;
29242;SDS011;21110;48.036;15.780;2023-03-01T02:44:02;9.05;;;2.63;;
29242;SDS011;21110;48.036;15.780;2023-03-01T02:46:29;6.07;;;2.55;;
29242;SDS011;21110;48.036;15.780;2023-03-01T02:48:55;13.10;;;2.53;;
29242;SDS011;21110;48.036;15.780;2023-03-01T02:54:15;10.18;;;2.70;;
29242;SDS011;21110;48.036;15.780;2023-03-01T02:56:50;9.77;;;2.60;;
29242;SDS011;21110;48.036;15.780;2023-03-01T02:59:18;9.80;;;2.50;;
29242;SDS011;21110;48.036;15.780;2023-03-01T03:01:49;6.75;;;2.35;;
29242;SDS011;21110;48.036;15.780;2023-03-01T03:04:15;9.65;;;2.30;;
29242;SDS011;21110;48.036;15.780;2023-03-01T03:06:43;7.85;;;2.42;;
29242;SDS011;21110;48.036;15.780;2023-03-01T03:09:10;15.88;;;2.58;;
29242;SDS011;21110;48.036;15.780;2023-03-01T03:11:36;6.07;;;2.22;;
29242;SDS011;21110;48.036;15.780;2023-03-01T03:14:02;7.18;;;2.60;;
29242;SDS011;21110;48.036;15.780;2023-03-01T03:16:28;6.90;;;2.50;;
29242;SDS011;21110;48.036;15.780;2023-03-01T03:18:54;7.57;;;2.30;;
29242;SDS011;21110;48.036;15.780;2023-03-01T03:21:29;8.50;;;2.58;;
29242;SDS011;21110;48.036;15.780;2023-03-01T03:23:58;5.47;;;2.47;;
29242;SDS011;21110;48.036;15.780;2023-03-01T03:26:24;6.45;;;2.50;;
29242;SDS011;21110;48.036;15.780;2023-03-01T03:28:50;7.20;;;2.22;;
29242;SDS011;21110;48.036;15.780;2023-03-01T03:31:16;4.88;;;2.50;;
29242;SDS011;21110;48.036;15.780;2023-03-01T03:33:41;4.05;;;2.30;;
29242;SDS011;21110;48.036;15.780;2023-03-01T03:36:07;3.70;;;2.28;;
29242;SDS011;21110;48.036;15.780;2023-03-01T03:38:38;4.60;;;2.30;;
29242;SDS011;21110;48.036;15.780;2023-03-01T03:41:07;5.38;;;2.60;;
29242;SDS011;21110;48.036;15.780;2023-03-01T03:43:34;2.75;;;2.28;;
29242;SDS011;21110;48.036;15.780;2023-03-01T03:46:01;7.68;;;2.42;;
29242;SDS011;21110;48.036;15.780;2023-03-01T03:48:32;6.63;;;2.47;;
29242;SDS011;21110;48.036;15.780;2023-03-01T03:50:59;5.57;;;2.42;;
29242;SDS011;21110;48.036;15.780;2023-03-01T03:53:25;3.08;;;2.30;;
29242;SDS011;21110;48.036;15.780;2023-03-01T03:55:52;4.15;;;2.55;;
29242;SDS011;21110;48.036;15.780;2023-03-01T03:58:19;3.33;;;2.50;;
29242;SDS011;21110;48.036;15.780;2023-03-01T04:00:50;3.22;;;2.20;;
29242;SDS011;21110;48.036;15.780;2023-03-01T04:03:20;4.15;;;2.53;;
29242;SDS011;21110;48.036;15.780;2023-03-01T04:05:47;3.90;;;2.40;;
29242;SDS011;21110;48.036;15.780;2023-03-01T04:08:15;6.25;;;2.33;;
29242;SDS011;21110;48.036;15.780;2023-03-01T04:10:46;3.17;;;2.55;;
29242;SDS011;21110;48.036;15.780;2023-03-01T04:13:15;4.40;;;2.60;;
29242;SDS011;21110;48.036;15.780;2023-03-01T04:15:44;4.55;;;2.33;;
29242;SDS011;21110;48.036;15.780;2023-03-01T04:18:12;3.13;;;2.17;;
29242;SDS011;21110;48.036;15.780;2023-03-01T04:20:38;4.03;;;2.60;;
29242;SDS011;21110;48.036;15.780;2023-03-01T04:23:06;3.05;;;2.33;;
29242;SDS011;21110;48.036;15.780;2023-03-01T04:25:41;3.92;;;2.50;;
29242;SDS011;21110;48.036;15.780;2023-03-01T04:28:14;2.58;;;2.38;;
29242;SDS011;21110;48.036;15.780;2023-03-01T04:30:41;4.25;;;2.53;;
29242;SDS011;21110;48.036;15.780;2023-03-01T04:33:07;3.45;;;2.30;;
29242;SDS011;21110;48.036;15.780;2023-03-01T04:35:34;4.53;;;2.50;;
29242;SDS011;21110;48.036;15.780;2023-03-01T04:38:01;2.53;;;2.33;;
29242;SDS011;21110;48.036;15.780;2023-03-01T04:40:26;5.30;;;2.67;;
29242;SDS011;21110;48.036;15.780;2023-03-01T04:42:52;10.30;;;2.40;;
29242;SDS011;21110;48.036;15.780;2023-03-01T04:45:18;8.93;;;2.67;;
29242;SDS011;21110;48.036;15.780;2023-03-01T04:47:44;8.20;;;2.55;;
29242;SDS011;21110;48.036;15.780;2023-03-01T04:50:11;3.55;;;2.65;;
29242;SDS011;21110;48.036;15.780;2023-03-01T04:52:39;6.75;;;2.80;;
29242;SDS011;21110;48.036;15.780;2023-03-01T04:55:05;14.07;;;2.67;;
29242;SDS011;21110;48.036;15.780;2023-03-01T04:57:31;5.82;;;2.60;;
29242;SDS011;21110;48.036;15.780;2023-03-01T04:59:57;5.10;;;2.80;;
29242;SDS011;21110;48.036;15.780;2023-03-01T05:02:23;10.25;;;2.67;;
29242;SDS011;21110;48.036;15.780;2023-03-01T05:04:49;7.93;;;2.72;;
29242;SDS011;21110;48.036;15.780;2023-03-01T05:07:14;7.47;;;2.60;;
29242;SDS011;21110;48.036;15.780;2023-03-01T05:09:44;7.57;;;2.90;;
29242;SDS011;21110;48.036;15.780;2023-03-01T05:12:13;4.05;;;2.72;;
29242;SDS011;21110;48.036;15.780;2023-03-01T05:14:39;3.35;;;2.40;;
29242;SDS011;21110;48.036;15.780;2023-03-01T05:17:06;5.53;;;2.70;;
29242;SDS011;21110;48.036;15.780;2023-03-01T05:19:32;7.60;;;2.78;;
29242;SDS011;21110;48.036;15.780;2023-03-01T05:21:59;7.72;;;2.72;;
29242;SDS011;21110;48.036;15.780;2023-03-01T05:24:32;5.50;;;2.50;;
29242;SDS011;21110;48.036;15.780;2023-03-01T05:26:59;4.88;;;2.42;;
29242;SDS011;21110;48.036;15.780;2023-03-01T05:29:27;3.92;;;2.58;;
29242;SDS011;21110;48.036;15.780;2023-03-01T05:31:56;5.38;;;2.70;;
29242;SDS011;21110;48.036;15.780;2023-03-01T05:34:24;4.93;;;2.65;;
29242;SDS011;21110;48.036;15.780;2023-03-01T05:36:50;8.02;;;2.70;;
29242;SDS011;21110;48.036;15.780;2023-03-01T05:39:18;4.90;;;2.80;;
29242;SDS011;21110;48.036;15.780;2023-03-01T05:41:46;5.00;;;2.65;;
29242;SDS011;21110;48.036;15.780;2023-03-01T05:44:11;7.07;;;2.50;;
29242;SDS011;21110;48.036;15.780;2023-03-01T05:46:37;3.08;;;2.60;;
29242;SDS011;21110;48.036;15.780;2023-03-01T05:49:03;2.75;;;2.30;;
29242;SDS011;21110;48.036;15.780;2023-03-01T05:51:29;8.35;;;2.78;;
29242;SDS011;21110;48.036;15.780;2023-03-01T05:53:55;5.20;;;2.63;;
29242;SDS011;21110;48.036;15.780;2023-03-01T05:56:20;6.47;;;2.53;;
29242;SDS011;21110;48.036;15.780;2023-03-01T05:58:47;4.10;;;2.70;;
29242;SDS011;21110;48.036;15.780;2023-03-01T06:01:14;4.90;;;2.63;;
29242;SDS011;21110;48.036;15.780;2023-03-01T06:03:40;4.40;;;2.70;;
29242;SDS011;21110;48.036;15.780;2023-03-01T06:06:06;6.63;;;2.60;;
29242;SDS011;21110;48.036;15.780;2023-03-01T06:08:31;16.88;;;8.15;;
29242;SDS011;21110;48.036;15.780;2023-03-01T06:10:57;16.00;;;10.60;;
29242;SDS011;21110;48.036;15.780;2023-03-01T06:13:23;20.40;;;10.13;;
29242;SDS011;21110;48.036;15.780;2023-03-01T06:15:49;19.80;;;10.60;;
29242;SDS011;21110;48.036;15.780;2023-03-01T06:18:14;21.10;;;11.05;;
29242;SDS011;21110;48.036;15.780;2023-03-01T06:20:40;18.23;;;11.35;;
29242;SDS011;21110;48.036;15.780;2023-03-01T06:23:06;19.45;;;12.23;;
29242;SDS011;21110;48.036;15.780;2023-03-01T06:25:34;13.07;;;11.30;;
29242;SDS011;21110;48.036;15.780;2023-03-01T06:28:00;15.57;;;11.52;;
29242;SDS011;21110;48.036;15.780;2023-03-01T06:30:26;15.63;;;12.13;;
29242;SDS011;21110;48.036;15.780;2023-03-01T06:32:51;15.57;;;11.45;;
29242;SDS011;21110;48.036;15.780;2023-03-01T06:35:18;42.05;;;10.20;;
29242;SDS011;21110;48.036;15.780;2023-03-01T06:37:44;39.00;;;8.80;;
29242;SDS011;21110;48.036;15.780;2023-03-01T06:40:11;29.10;;;8.82;;
29242;SDS011;21110;48.036;15.780;2023-03-01T06:42:39;35.67;;;8.52;;
29242;SDS011;21110;48.036;15.780;2023-03-01T06:45:06;23.77;;;7.85;;
29242;SDS011;21110;48.036;15.780;2023-03-01T06:47:32;19.13;;;6.75;;
29242;SDS011;21110;48.036;15.780;2023-03-01T06:50:02;16.85;;;7.35;;
29242;SDS011;21110;48.036;15.780;2023-03-01T06:52:28;21.02;;;7.05;;
29242;SDS011;21110;48.036;15.780;2023-03-01T06:54:54;17.08;;;6.30;;
29242;SDS011;21110;48.036;15.780;2023-03-01T06:57:20;19.70;;;6.65;;
29242;SDS011;21110;48.036;15.780;2023-03-01T06:59:46;16.40;;;6.25;;
29242;SDS011;21110;48.036;15.780;2023-03-01T07:02:12;12.85;;;6.25;;
29242;SDS011;21110;48.036;15.780;2023-03-01T07:04:40;13.52;;;6.50;;
29242;SDS011;21110;48.036;15.780;2023-03-01T07:07:06;13.00;;;6.25;;
29242;SDS011;21110;48.036;15.780;2023-03-01T07:09:31;13.13;;;6.00;;
29242;SDS011;21110;48.036;15.780;2023-03-01T07:11:57;13.57;;;5.78;;
29242;SDS011;21110;48.036;15.780;2023-03-01T07:14:23;13.48;;;6.43;;
29242;SDS011;21110;48.036;15.780;2023-03-01T07:16:54;10.05;;;5.85;;
29242;SDS011;21110;48.036;15.780;2023-03-01T07:19:21;13.40;;;6.50;;
29242;SDS011;21110;48.036;15.780;2023-03-01T07:21:47;11.85;;;6.10;;
29242;SDS011;21110;48.036;15.780;2023-03-01T07:24:13;10.32;;;6.30;;
29242;SDS011;21110;48.036;15.780;2023-03-01T07:26:38;12.50;;;6.10;;
29242;SDS011;21110;48.036;15.780;2023-03-01T07:29:04;9.15;;;6.07;;
29242;SDS011;21110;48.036;15.780;2023-03-01T07:31:32;8.73;;;5.50;;
29242;SDS011;21110;48.036;15.780;2023-03-01T07:33:58;8.13;;;5.57;;
29242;SDS011;21110;48.036;15.780;2023-03-01T07:36:23;11.70;;;5.60;;
29242;SDS011;21110;48.036;15.780;2023-03-01T07:38:49;8.98;;;5.57;;
29242;SDS011;21110;48.036;15.780;2023-03-01T07:41:15;8.15;;;5.22;;
29242;SDS011;21110;48.036;15.780;2023-03-01T07:43:41;8.95;;;5.80;;
29242;SDS011;21110;48.036;15.780;2023-03-01T07:46:07;8.95;;;5.40;;
29242;SDS011;21110;48.036;15.780;2023-03-01T07:48:32;8.48;;;5.30;;
29242;SDS011;21110;48.036;15.780;2023-03-01T07:51:02;8.82;;;5.35;;
29242;SDS011;21110;48.036;15.780;2023-03-01T07:53:30;7.90;;;4.97;;
29242;SDS011;21110;48.036;15.780;2023-03-01T07:56:09;7.13;;;5.15;;
29242;SDS011;21110;48.036;15.780;2023-03-01T07:58:36;7.18;;;5.28;;
29242;SDS011;21110;48.036;15.780;2023-03-01T08:01:05;7.40;;;5.60;;
29242;SDS011;21110;48.036;15.780;2023-03-01T08:03:33;10.82;;;5.68;;
29242;SDS011;21110;48.036;15.780;2023-03-01T08:06:00;6.22;;;4.82;;
29242;SDS011;21110;48.036;15.780;2023-03-01T08:08:27;5.88;;;4.68;;
29242;SDS011;21110;48.036;15.780;2023-03-01T08:10:52;7.00;;;5.10;;
29242;SDS011;21110;48.036;15.780;2023-03-01T08:13:21;6.40;;;4.88;;
29242;SDS011;21110;48.036;15.780;2023-03-01T08:15:50;6.68;;;4.75;;
29242;SDS011;21110;48.036;15.780;2023-03-01T08:18:16;5.50;;;4.53;;
29242;SDS011;21110;48.036;15.780;2023-03-01T08:20:43;6.72;;;5.13;;
29242;SDS011;21110;48.036;15.780;2023-03-01T08:23:09;6.97;;;5.28;;
29242;SDS011;21110;48.036;15.780;2023-03-01T08:25:35;5.97;;;5.00;;
29242;SDS011;21110;48.036;15.780;2023-03-01T08:28:01;6.70;;;5.03;;
29242;SDS011;21110;48.036;15.780;2023-03-01T08:30:27;6.45;;;5.13;;
29242;SDS011;21110;48.036;15.780;2023-03-01T08:32:53;6.75;;;5.40;;
29242;SDS011;21110;48.036;15.780;2023-03-01T08:35:19;7.30;;;5.10;;
29242;SDS011;21110;48.036;15.780;2023-03-01T08:37:45;7.40;;;5.03;;
29242;SDS011;21110;48.036;15.780;2023-03-01T08:40:11;6.40;;;4.90;;
29242;SDS011;21110;48.036;15.780;2023-03-01T08:42:38;6.45;;;4.72;;
29242;SDS011;21110;48.036;15.780;2023-03-01T08:45:05;6.10;;;4.60;;
29242;SDS011;21110;48.036;15.780;2023-03-01T08:47:31;5.78;;;4.25;;
29242;SDS011;21110;48.036;15.780;2023-03-01T08:49:58;4.53;;;4.13;;
29242;SDS011;21110;48.036;15.780;2023-03-01T08:52:24;4.70;;;4.28;;
29242;SDS011;21110;48.036;15.780;2023-03-01T08:54:51;4.78;;;4.00;;
29242;SDS011;21110;48.036;15.780;2023-03-01T08:57:16;6.30;;;4.20;;
29242;SDS011;21110;48.036;15.780;2023-03-01T08:59:42;6.05;;;4.28;;
29242;SDS011;21110;48.036;15.780;2023-03-01T09:02:10;5.25;;;4.15;;
29242;SDS011;21110;48.036;15.780;2023-03-01T09:04:39;6.57;;;4.40;;
29242;SDS011;21110;48.036;15.780;2023-03-01T09:07:04;5.43;;;4.38;;
29242;SDS011;21110;48.036;15.780;2023-03-01T09:09:30;6.43;;;4.10;;
29242;SDS011;21110;48.036;15.780;2023-03-01T09:11:56;4.53;;;3.97;;
29242;SDS011;21110;48.036;15.780;2023-03-01T09:14:21;4.72;;;4.22;;
29242;SDS011;21110;48.036;15.780;2023-03-01T09:16:47;6.10;;;4.35;;
29242;SDS011;21110;48.036;15.780;2023-03-01T09:19:13;4.20;;;3.80;;
29242;SDS011;21110;48.036;15.780;2023-03-01T09:21:39;5.55;;;4.20;;
29242;SDS011;21110;48.036;15.780;2023-03-01T09:24:05;5.38;;;4.10;;
29242;SDS011;21110;48.036;15.780;2023-03-01T09:26:40;4.40;;;3.90;;
29242;SDS011;21110;48.036;15.780;2023-03-01T09:29:06;4.30;;;3.80;;
29242;SDS011;21110;48.036;15.780;2023-03-01T09:31:34;4.43;;;4.00;;
29242;SDS011;21110;48.036;15.780;2023-03-01T09:34:00;4.72;;;3.92;;
29242;SDS011;21110;48.036;15.780;2023-03-01T09:36:25;4.20;;;3.75;;
29242;SDS011;21110;48.036;15.780;2023-03-01T09:38:51;6.70;;;3.80;;
29242;SDS011;21110;48.036;15.780;2023-03-01T09:41:38;5.53;;;4.00;;
29242;SDS011;21110;48.036;15.780;2023-03-01T09:46:52;4.68;;;3.80;;
29242;SDS011;21110;48.036;15.780;2023-03-01T09:49:19;5.20;;;4.10;;
29242;SDS011;21110;48.036;15.780;2023-03-01T09:51:53;4.80;;;3.95;;
29242;SDS011;21110;48.036;15.780;2023-03-01T09:54:24;4.30;;;3.90;;
29242;SDS011;21110;48.036;15.780;2023-03-01T09:56:53;3.70;;;3.40;;
29242;SDS011;21110;48.036;15.780;2023-03-01T10:02:32;4.30;;;3.53;;
29242;SDS011;21110;48.036;15.780;2023-03-01T10:11:01;4.53;;;3.70;;
29242;SDS011;21110;48.036;15.780;2023-03-01T10:16:21;4.25;;;3.40;;
29242;SDS011;21110;48.036;15.780;2023-03-01T10:18:55;3.83;;;3.53;;
29242;SDS011;21110;48.036;15.780;2023-03-01T10:21:25;3.92;;;3.50;;
29242;SDS011;21110;48.036;15.780;2023-03-01T10:23:52;3.92;;;3.58;;
29242;SDS011;21110;48.036;15.780;2023-03-01T10:29:08;4.90;;;3.92;;
29242;SDS011;21110;48.036;15.780;2023-03-01T10:31:43;4.15;;;3.60;;
29242;SDS011;21110;48.036;15.780;2023-03-01T10:34:15;4.45;;;3.50;;
29242;SDS011;21110;48.036;15.780;2023-03-01T10:36:42;3.90;;;3.50;;
29242;SDS011;21110;48.036;15.780;2023-03-01T10:39:16;3.70;;;3.40;;
29242;SDS011;21110;48.036;15.780;2023-03-01T10:42:03;3.80;;;3.50;;
29242;SDS011;21110;48.036;15.780;2023-03-01T10:49:39;3.92;;;3.50;;
29242;SDS011;21110;48.036;15.780;2023-03-01T10:52:20;3.75;;;3.38;;
29242;SDS011;21110;48.036;15.780;2023-03-01T10:54:52;3.95;;;3.60;;
29242;SDS011;21110;48.036;15.780;2023-03-01T10:57:31;3.95;;;3.55;;
29242;SDS011;21110;48.036;15.780;2023-03-01T11:00:18;4.03;;;3.63;;
29242;SDS011;21110;48.036;15.780;2023-03-01T11:02:47;3.47;;;3.17;;
29242;SDS011;21110;48.036;15.780;2023-03-01T11:05:33;4.07;;;3.22;;
29242;SDS011;21110;48.036;15.780;2023-03-01T11:08:00;3.47;;;3.17;;
29242;SDS011;21110;48.036;15.780;2023-03-01T11:10:34;3.80;;;3.40;;
29242;SDS011;21110;48.036;15.780;2023-03-01T11:15:40;3.53;;;3.22;;
29242;SDS011;21110;48.036;15.780;2023-03-01T11:18:17;3.20;;;3.00;;
29242;SDS011;21110;48.036;15.780;2023-03-01T11:23:14;3.65;;;3.25;;
29242;SDS011;21110;48.036;15.780;2023-03-01T11:25:42;3.67;;;3.38;;
29242;SDS011;21110;48.036;15.780;2023-03-01T11:28:14;3.22;;;3.03;;
29242;SDS011;21110;48.036;15.780;2023-03-01T11:33:40;3.47;;;3.15;;
29242;SDS011;21110;48.036;15.780;2023-03-01T11:39:45;3.50;;;3.20;;
29242;SDS011;21110;48.036;15.780;2023-03-01T11:42:20;3.45;;;3.17;;
29242;SDS011;21110;48.036;15.780;2023-03-01T11:44:50;3.47;;;3.17;;
29242;SDS011;21110;48.036;15.780;2023-03-01T11:50:08;3.80;;;3.38;;
29242;SDS011;21110;48.036;15.780;2023-03-01T12:06:57;3.50;;;3.13;;
29242;SDS011;21110;48.036;15.780;2023-03-01T12:21:21;3.08;;;2.88;;
29242;SDS011;21110;48.036;15.780;2023-03-01T12:32:15;3.30;;;3.00;;
29242;SDS011;21110;48.036;15.780;2023-03-01T12:35:12;3.30;;;3.00;;
29242;SDS011;21110;48.036;15.780;2023-03-01T12:38:08;3.15;;;2.85;;
29242;SDS011;21110;48.036;15.780;2023-03-01T12:46:31;2.80;;;2.60;;
29242;SDS011;21110;48.036;15.780;2023-03-01T12:49:13;3.00;;;2.70;;
29242;SDS011;21110;48.036;15.780;2023-03-01T12:51:51;3.28;;;2.97;;
29242;SDS011;21110;48.036;15.780;2023-03-01T12:54:40;2.80;;;2.60;;
29242;SDS011;21110;48.036;15.780;2023-03-01T12:57:09;2.75;;;2.55;;
29242;SDS011;21110;48.036;15.780;2023-03-01T13:03:23;3.30;;;3.00;;
29242;SDS011;21110;48.036;15.780;2023-03-01T13:08:29;3.53;;;2.90;;
29242;SDS011;21110;48.036;15.780;2023-03-01T13:11:02;3.30;;;3.00;;
29242;SDS011;21110;48.036;15.780;2023-03-01T13:13:30;3.20;;;2.90;;
29242;SDS011;21110;48.036;15.780;2023-03-01T13:15:56;3.35;;;3.05;;
29242;SDS011;21110;48.036;15.780;2023-03-01T13:20:51;2.95;;;2.75;;
29242;SDS011;21110;48.036;15.780;2023-03-01T13:31:02;3.08;;;2.80;;
29242;SDS011;21110;48.036;15.780;2023-03-01T13:35:56;3.00;;;2.80;;
29242;SDS011;21110;48.036;15.780;2023-03-01T13:41:16;3.42;;;2.80;;
29242;SDS011;21110;48.036;15.780;2023-03-01T13:44:01;2.97;;;2.78;;
29242;SDS011;21110;48.036;15.780;2023-03-01T13:46:45;3.00;;;2.78;;
29242;SDS011;21110;48.036;15.780;2023-03-01T13:49:19;3.15;;;2.90;;
29242;SDS011;21110;48.036;15.780;2023-03-01T13:51:47;2.80;;;2.60;;
29242;SDS011;21110;48.036;15.780;2023-03-01T13:54:18;3.40;;;3.10;;
29242;SDS011;21110;48.036;15.780;2023-03-01T13:56:55;3.17;;;2.88;;
29242;SDS011;21110;48.036;15.780;2023-03-01T13:59:23;3.70;;;2.90;;
29242;SDS011;21110;48.036;15.780;2023-03-01T14:01:52;2.80;;;2.60;;
29242;SDS011;21110;48.036;15.780;2023-03-01T14:04:23;2.95;;;2.75;;
29242;SDS011;21110;48.036;15.780;2023-03-01T14:06:50;2.90;;;2.70;;
29242;SDS011;21110;48.036;15.780;2023-03-01T14:09:21;2.70;;;2.50;;
29242;SDS011;21110;48.036;15.780;2023-03-01T14:12:02;2.75;;;2.55;;
29242;SDS011;21110;48.036;15.780;2023-03-01T14:15:22;2.60;;;2.40;;
29242;SDS011;21110;48.036;15.780;2023-03-01T14:20:26;2.88;;;2.67;;
29242;SDS011;21110;48.036;15.780;2023-03-01T14:22:54;2.90;;;2.70;;
29242;SDS011;21110;48.036;15.780;2023-03-01T14:27:55;2.73;;;2.53;;
29242;SDS011;21110;48.036;15.780;2023-03-01T14:30:38;3.03;;;2.75;;
29242;SDS011;21110;48.036;15.780;2023-03-01T14:38:30;2.83;;;2.63;;
29242;SDS011;21110;48.036;15.780;2023-03-01T14:43:53;2.92;;;2.72;;
29242;SDS011;21110;48.036;15.780;2023-03-01T14:46:24;2.67;;;2.47;;
29242;SDS011;21110;48.036;15.780;2023-03-01T14:49:09;2.45;;;2.25;;
29242;SDS011;21110;48.036;15.780;2023-03-01T14:51:52;3.00;;;2.80;;
29242;SDS011;21110;48.036;15.780;2023-03-01T14:54:26;3.10;;;2.80;;
29242;SDS011;21110;48.036;15.780;2023-03-01T14:57:16;2.85;;;2.65;;
29242;SDS011;21110;48.036;15.780;2023-03-01T14:59:44;2.40;;;2.20;;
29242;SDS011;21110;48.036;15.780;2023-03-01T15:02:15;2.40;;;2.20;;
29242;SDS011;21110;48.036;15.780;2023-03-01T15:04:45;2.40;;;2.20;;
29242;SDS011;21110;48.036;15.780;2023-03-01T15:07:13;2.95;;;2.70;;
29242;SDS011;21110;48.036;15.780;2023-03-01T15:09:39;2.45;;;2.20;;
29242;SDS011;21110;48.036;15.780;2023-03-01T15:12:31;2.72;;;2.53;;
29242;SDS011;21110;48.036;15.780;2023-03-01T15:15:00;2.50;;;2.30;;
29242;SDS011;21110;48.036;15.780;2023-03-01T15:17:27;2.60;;;2.40;;
29242;SDS011;21110;48.036;15.780;2023-03-01T15:20:02;2.70;;;2.50;;
29242;SDS011;21110;48.036;15.780;2023-03-01T15:22:40;2.55;;;2.35;;
29242;SDS011;21110;48.036;15.780;2023-03-01T15:25:20;2.90;;;2.58;;
29242;SDS011;21110;48.036;15.780;2023-03-01T15:27:48;2.42;;;2.22;;
29242;SDS011;21110;48.036;15.780;2023-03-01T15:30:20;2.58;;;2.38;;
29242;SDS011;21110;48.036;15.780;2023-03-01T15:35:48;2.83;;;2.60;;
29242;SDS011;21110;48.036;15.780;2023-03-01T15:44:14;2.55;;;2.35;;
29242;SDS011;21110;48.036;15.780;2023-03-01T15:46:44;2.35;;;2.15;;
29242;SDS011;21110;48.036;15.780;2023-03-01T15:52:11;2.65;;;2.45;;
29242;SDS011;21110;48.036;15.780;2023-03-01T15:54:46;2.67;;;2.47;;
29242;SDS011;21110;48.036;15.780;2023-03-01T15:57:14;2.47;;;2.28;;
29242;SDS011;21110;48.036;15.780;2023-03-01T15:59:40;2.80;;;2.60;;
29242;SDS011;21110;48.036;15.780;2023-03-01T16:02:12;2.53;;;2.33;;
29242;SDS011;21110;48.036;15.780;2023-03-01T16:04:38;2.17;;;2.08;;
29242;SDS011;21110;48.036;15.780;2023-03-01T16:07:05;2.95;;;2.75;;
29242;SDS011;21110;48.036;15.780;2023-03-01T16:09:31;2.78;;;2.58;;
29242;SDS011;21110;48.036;15.780;2023-03-01T16:11:57;2.50;;;2.30;;
29242;SDS011;21110;48.036;15.780;2023-03-01T16:14:22;2.55;;;2.40;;
29242;SDS011;21110;48.036;15.780;2023-03-01T16:16:48;2.58;;;2.38;;
29242;SDS011;21110;48.036;15.780;2023-03-01T16:19:14;2.58;;;2.38;;
29242;SDS011;21110;48.036;15.780;2023-03-01T16:21:41;2.50;;;2.30;;
29242;SDS011;21110;48.036;15.780;2023-03-01T16:24:08;2.63;;;2.42;;
29242;SDS011;21110;48.036;15.780;2023-03-01T16:26:34;2.40;;;2.20;;
29242;SDS011;21110;48.036;15.780;2023-03-01T16:29:02;2.10;;;2.00;;
29242;SDS011;21110;48.036;15.780;2023-03-01T16:31:28;2.95;;;2.67;;
29242;SDS011;21110;48.036;15.780;2023-03-01T16:33:54;2.40;;;2.20;;
29242;SDS011;21110;48.036;15.780;2023-03-01T16:36:21;2.60;;;2.40;;
29242;SDS011;21110;48.036;15.780;2023-03-01T16:38:53;2.47;;;2.30;;
29242;SDS011;21110;48.036;15.780;2023-03-01T16:41:21;2.45;;;2.25;;
29242;SDS011;21110;48.036;15.780;2023-03-01T16:43:48;2.58;;;2.38;;
29242;SDS011;21110;48.036;15.780;2023-03-01T16:46:15;2.55;;;2.35;;
29242;SDS011;21110;48.036;15.780;2023-03-01T16:48:43;2.22;;;2.13;;
29242;SDS011;21110;48.036;15.780;2023-03-01T16:51:09;2.33;;;2.20;;
29242;SDS011;21110;48.036;15.780;2023-03-01T16:53:35;2.53;;;2.33;;
29242;SDS011;21110;48.036;15.780;2023-03-01T16:56:02;2.50;;;2.30;;
29242;SDS011;21110;48.036;15.780;2023-03-01T16:58:30;2.53;;;2.33;;
29242;SDS011;21110;48.036;15.780;2023-03-01T17:00:55;6.43;;;2.47;;
29242;SDS011;21110;48.036;15.780;2023-03-01T17:03:22;9.77;;;2.45;;